createdAt,value
2018-09-09T00:00:36.330Z,3.70
2018-09-09T00:01:36.308Z,4.60
2018-09-09T00:02:36.357Z,5.10
2018-09-09T00:03:36.296Z,5.00
2018-09-09T00:04:36.276Z,5.90
2018-09-09T00:05:36.281Z,4.40
2018-09-09T00:06:36.263Z,4.60
2018-09-09T00:07:36.295Z,5.20
2018-09-09T00:08:36.241Z,3.60
2018-09-09T00:09:36.232Z,5.60
2018-09-09T00:10:36.222Z,5.00
2018-09-09T00:11:36.211Z,6.60
2018-09-09T00:12:36.236Z,3.40
2018-09-09T00:13:36.188Z,5.60
2018-09-09T00:14:36.167Z,7.10
2018-09-09T00:15:36.166Z,5.70
2018-09-09T00:16:36.149Z,4.60
2018-09-09T00:17:36.187Z,5.10
2018-09-09T00:18:36.120Z,4.20
2018-09-09T00:19:36.109Z,3.90
2018-09-09T00:20:36.103Z,5.10
2018-09-09T00:21:36.086Z,5.50
2018-09-09T00:22:36.213Z,4.90
2018-09-09T00:23:36.068Z,5.20
2018-09-09T00:24:36.044Z,4.10
2018-09-09T00:25:36.038Z,4.50
2018-09-09T00:26:36.032Z,5.40
2018-09-09T00:27:36.050Z,4.90
2018-09-09T00:28:36.007Z,6.40
2018-09-09T00:29:36.036Z,5.30
2018-09-09T00:30:35.982Z,5.40
2018-09-09T00:31:35.971Z,4.00
2018-09-09T00:32:35.965Z,6.20
2018-09-09T00:33:35.974Z,5.40
2018-09-09T00:34:35.936Z,4.10
2018-09-09T00:35:35.926Z,4.50
2018-09-09T00:36:35.916Z,3.70
2018-09-09T00:37:35.943Z,5.20
2018-09-09T00:38:35.888Z,6.30
2018-09-09T00:39:35.906Z,5.70
2018-09-09T00:40:35.870Z,4.60
2018-09-09T00:41:35.856Z,5.00
2018-09-09T00:42:35.847Z,4.60
2018-09-09T00:43:35.836Z,4.00
2018-09-09T00:44:35.852Z,5.60
2018-09-09T00:45:35.815Z,5.90
2018-09-09T00:46:35.809Z,4.80
2018-09-09T00:47:35.792Z,5.40
2018-09-09T00:48:35.810Z,4.40
2018-09-09T00:49:35.780Z,6.50
2018-09-09T00:50:35.803Z,6.70
2018-09-09T00:51:35.753Z,6.50
2018-09-09T00:52:35.746Z,4.30
2018-09-09T00:53:35.734Z,6.30
2018-09-09T00:54:35.726Z,4.90
2018-09-09T00:55:35.768Z,5.40
2018-09-09T00:56:35.696Z,5.50
2018-09-09T00:57:35.686Z,6.40
2018-09-09T00:58:35.673Z,4.70
2018-09-09T00:59:35.664Z,5.70
2018-09-09T01:00:35.697Z,4.60
2018-09-09T01:01:35.639Z,5.50
2018-09-09T01:02:35.672Z,4.70
2018-09-09T01:03:35.614Z,5.80
2018-09-09T01:04:35.608Z,4.90
2018-09-09T01:05:35.626Z,4.20
2018-09-09T01:06:35.602Z,6.40
2018-09-09T01:07:35.609Z,6.50
2018-09-09T01:08:35.563Z,5.50
2018-09-09T01:09:35.551Z,5.10
2018-09-09T01:10:35.543Z,4.00
2018-09-09T01:11:35.566Z,4.20
2018-09-09T01:12:35.516Z,6.50
2018-09-09T01:13:35.514Z,6.80
2018-09-09T01:14:35.494Z,4.80
2018-09-09T01:15:35.481Z,5.00
2018-09-09T01:16:35.547Z,6.00
2018-09-09T01:17:35.471Z,7.30
2018-09-09T01:18:35.461Z,8.80
2018-09-09T01:19:35.440Z,4.30
2018-09-09T01:20:35.429Z,5.50
2018-09-09T01:21:35.452Z,5.30
2018-09-09T01:22:35.396Z,5.30
2018-09-09T01:23:35.390Z,6.10
2018-09-09T01:24:35.370Z,7.90
2018-09-09T01:25:35.364Z,5.60
2018-09-09T01:26:35.398Z,6.90
2018-09-09T01:27:35.351Z,4.80
2018-09-09T01:28:35.332Z,4.40
2018-09-09T01:29:35.311Z,5.00
2018-09-09T01:30:35.309Z,6.00
2018-09-09T01:31:35.342Z,5.30
2018-09-09T01:32:35.280Z,5.10
2018-09-09T01:33:35.273Z,5.60
2018-09-09T01:34:35.259Z,5.10
2018-09-09T01:35:35.253Z,5.30
2018-09-09T01:36:35.268Z,5.10
2018-09-09T01:37:35.229Z,5.20
2018-09-09T01:38:35.256Z,4.30
2018-09-09T01:39:35.204Z,6.70
2018-09-09T01:40:35.204Z,6.50
2018-09-09T01:41:35.180Z,4.30
2018-09-09T01:42:35.177Z,4.40
2018-09-09T01:43:35.205Z,5.50
2018-09-09T01:44:35.144Z,5.30
2018-09-09T01:45:35.138Z,4.40
2018-09-09T01:46:35.129Z,6.90
2018-09-09T01:47:35.109Z,4.50
2018-09-09T01:48:35.142Z,4.70
2018-09-09T01:49:35.132Z,8.00
2018-09-09T01:50:35.086Z,5.10
2018-09-09T01:51:35.069Z,6.20
2018-09-09T01:52:35.058Z,5.10
2018-09-09T01:53:35.078Z,5.30
2018-09-09T01:54:35.076Z,4.40
2018-09-09T01:55:35.069Z,6.10
2018-09-09T01:56:35.026Z,6.70
2018-09-09T01:57:35.014Z,4.50
2018-09-09T01:58:35.002Z,4.50
2018-09-09T01:59:35.030Z,3.80
2018-09-09T02:00:34.974Z,4.70
2018-09-09T02:01:34.979Z,4.50
2018-09-09T02:02:34.956Z,5.90
2018-09-09T02:03:34.949Z,4.90
2018-09-09T02:04:34.987Z,4.90
2018-09-09T02:05:34.932Z,3.80
2018-09-09T02:06:34.918Z,5.60
2018-09-09T02:07:34.905Z,5.90
2018-09-09T02:08:34.884Z,4.30
2018-09-09T02:09:34.920Z,4.60
2018-09-09T02:10:34.866Z,4.10
2018-09-09T02:11:34.891Z,5.30
2018-09-09T02:12:34.849Z,4.00
2018-09-09T02:13:34.830Z,5.00
2018-09-09T02:14:34.824Z,5.20
2018-09-09T02:15:34.816Z,4.30
2018-09-09T02:16:34.872Z,4.70
2018-09-09T02:17:34.788Z,5.90
2018-09-09T02:18:34.774Z,5.10
2018-09-09T02:19:34.799Z,4.40
2018-09-09T02:20:34.769Z,4.40
2018-09-09T02:21:34.773Z,4.00
2018-09-09T02:22:34.749Z,6.30
2018-09-09T02:23:34.728Z,4.70
2018-09-09T02:24:34.724Z,4.70
2018-09-09T02:25:34.742Z,5.30
2018-09-09T02:26:34.724Z,4.70
2018-09-09T02:27:34.685Z,4.10
2018-09-09T02:28:34.657Z,4.20
2018-09-09T02:29:34.663Z,7.00
2018-09-09T02:30:34.628Z,4.40
2018-09-09T02:31:34.656Z,3.70
2018-09-09T02:32:34.664Z,3.50
2018-09-09T02:33:34.626Z,5.00
2018-09-09T02:34:34.594Z,6.30
2018-09-09T02:35:34.578Z,5.90
2018-09-09T02:36:34.574Z,4.60
2018-09-09T02:37:34.619Z,5.30
2018-09-09T02:38:34.551Z,3.90
2018-09-09T02:39:34.553Z,4.30
2018-09-09T02:40:34.537Z,4.40
2018-09-09T02:41:34.512Z,4.80
2018-09-09T02:42:34.532Z,4.40
2018-09-09T02:43:34.547Z,5.90
2018-09-09T02:44:34.485Z,3.90
2018-09-09T02:45:34.479Z,2.90
2018-09-09T02:46:34.502Z,3.10
2018-09-09T02:47:34.471Z,4.20
2018-09-09T02:48:34.467Z,4.70
2018-09-09T02:49:34.432Z,3.80
2018-09-09T02:50:34.416Z,5.40
2018-09-09T02:51:34.395Z,3.80
2018-09-09T02:52:34.432Z,4.20
2018-09-09T02:53:34.385Z,7.80
2018-09-09T02:54:34.371Z,6.30
2018-09-09T02:55:34.354Z,5.20
2018-09-09T02:56:34.354Z,3.90
2018-09-09T02:57:34.370Z,4.30
2018-09-09T02:58:34.340Z,5.10
2018-09-09T02:59:34.335Z,4.80
2018-09-09T03:00:34.353Z,4.50
2018-09-09T03:01:34.299Z,4.80
2018-09-09T03:02:34.317Z,5.10
2018-09-09T03:03:34.276Z,6.60
2018-09-09T03:04:34.300Z,4.10
2018-09-09T03:05:34.255Z,3.80
2018-09-09T03:06:34.249Z,4.80
2018-09-09T03:07:34.233Z,5.90
2018-09-09T03:08:34.260Z,4.00
2018-09-09T03:09:34.205Z,4.40
2018-09-09T03:10:34.253Z,6.60
2018-09-09T03:11:34.197Z,4.30
2018-09-09T03:12:34.198Z,5.20
2018-09-09T03:13:34.208Z,5.10
2018-09-09T03:14:34.146Z,3.50
2018-09-09T03:15:34.147Z,5.50
2018-09-09T03:16:34.140Z,3.60
2018-09-09T03:17:34.111Z,5.00
2018-09-09T03:18:34.137Z,4.40
2018-09-09T03:19:34.114Z,6.70
2018-09-09T03:20:34.095Z,4.00
2018-09-09T03:21:34.074Z,5.10
2018-09-09T03:22:34.099Z,3.60
2018-09-09T03:23:34.056Z,6.10
2018-09-09T03:24:34.052Z,3.60
2018-09-09T03:25:34.023Z,3.80
2018-09-09T03:26:34.022Z,5.20
2018-09-09T03:27:34.041Z,4.70
2018-09-09T03:28:34.044Z,5.50
2018-09-09T03:29:34.007Z,6.20
2018-09-09T03:30:33.979Z,5.80
2018-09-09T03:31:33.953Z,6.00
2018-09-09T03:32:33.943Z,6.10
2018-09-09T03:33:33.934Z,5.60
2018-09-09T03:34:33.961Z,4.30
2018-09-09T03:35:33.897Z,4.00
2018-09-09T03:36:33.938Z,4.00
2018-09-09T03:37:33.887Z,3.70
2018-09-09T03:38:33.875Z,3.50
2018-09-09T03:39:33.859Z,4.40
2018-09-09T03:40:33.887Z,5.40
2018-09-09T03:41:33.867Z,6.00
2018-09-09T03:42:33.822Z,4.50
2018-09-09T03:43:33.853Z,4.20
2018-09-09T03:44:33.817Z,5.50
2018-09-09T03:45:33.796Z,5.30
2018-09-09T03:46:33.789Z,5.90
2018-09-09T03:47:33.767Z,6.10
2018-09-09T03:48:33.814Z,3.50
2018-09-09T03:49:33.799Z,4.90
2018-09-09T03:50:33.793Z,4.00
2018-09-09T03:51:33.733Z,4.50
2018-09-09T03:52:33.711Z,5.00
2018-09-09T03:53:33.702Z,4.70
2018-09-09T03:54:33.683Z,5.50
2018-09-09T03:55:33.707Z,6.20
2018-09-09T03:56:33.689Z,5.80
2018-09-09T03:57:33.677Z,4.80
2018-09-09T03:58:33.658Z,4.50
2018-09-09T03:59:33.635Z,5.30
2018-09-09T04:00:33.667Z,5.30
2018-09-09T04:01:33.625Z,4.30
2018-09-09T04:02:33.615Z,4.90
2018-09-09T04:03:33.600Z,5.70
2018-09-09T04:04:33.596Z,4.90
2018-09-09T04:05:33.621Z,4.50
2018-09-09T04:06:33.561Z,3.70
2018-09-09T04:07:33.554Z,4.30
2018-09-09T04:08:33.548Z,3.60
2018-09-09T04:09:33.534Z,4.10
2018-09-09T04:10:33.590Z,4.90
2018-09-09T04:11:33.500Z,6.60
2018-09-09T04:12:33.492Z,4.00
2018-09-09T04:13:33.490Z,4.20
2018-09-09T04:14:33.470Z,3.80
2018-09-09T04:15:33.510Z,5.50
2018-09-09T04:16:33.447Z,3.40
2018-09-09T04:17:33.435Z,3.70
2018-09-09T04:18:33.417Z,3.40
2018-09-09T04:19:33.409Z,4.50
2018-09-09T04:20:33.433Z,4.60
2018-09-09T04:21:33.425Z,4.50
2018-09-09T04:22:33.374Z,4.90
2018-09-09T04:23:33.367Z,4.20
2018-09-09T04:24:33.365Z,5.90
2018-09-09T04:25:33.343Z,4.80
2018-09-09T04:26:33.356Z,4.80
2018-09-09T04:27:33.313Z,5.20
2018-09-09T04:28:33.331Z,5.40
2018-09-09T04:29:33.289Z,5.30
2018-09-09T04:30:33.292Z,4.60
2018-09-09T04:31:33.316Z,4.00
2018-09-09T04:32:33.278Z,5.20
2018-09-09T04:33:33.245Z,5.60
2018-09-09T04:34:33.252Z,4.70
2018-09-09T04:35:33.248Z,4.60
2018-09-09T04:36:33.264Z,5.00
2018-09-09T04:37:33.212Z,4.40
2018-09-09T04:38:33.236Z,3.60
2018-09-09T04:39:33.194Z,4.20
2018-09-09T04:40:33.188Z,6.00
2018-09-09T04:41:33.176Z,4.90
2018-09-09T04:42:33.190Z,4.60
2018-09-09T04:43:33.148Z,4.50
2018-09-09T04:44:33.150Z,5.40
2018-09-09T04:45:33.126Z,5.60
2018-09-09T04:46:33.108Z,5.50
2018-09-09T04:47:33.150Z,4.30
2018-09-09T04:48:33.092Z,5.40
2018-09-09T04:49:33.082Z,9.10
2018-09-09T04:50:33.064Z,4.90
2018-09-09T04:51:33.054Z,4.30
2018-09-09T04:52:33.080Z,4.70
2018-09-09T04:53:33.027Z,5.50
2018-09-09T04:54:33.068Z,5.30
2018-09-09T04:55:33.018Z,6.80
2018-09-09T04:56:32.998Z,5.00
2018-09-09T04:57:33.000Z,5.20
2018-09-09T04:58:33.008Z,5.30
2018-09-09T04:59:33.004Z,5.70
2018-09-09T05:00:32.970Z,5.00
2018-09-09T05:01:32.942Z,5.60
2018-09-09T05:02:32.934Z,6.10
2018-09-09T05:03:32.929Z,6.30
2018-09-09T05:04:32.954Z,4.70
2018-09-09T05:05:32.944Z,4.80
2018-09-09T05:06:32.885Z,4.90
2018-09-09T05:07:32.864Z,5.60
2018-09-09T05:08:32.860Z,5.60
2018-09-09T05:09:32.845Z,3.60
2018-09-09T05:10:32.867Z,4.00
2018-09-09T05:11:32.823Z,5.60
2018-09-09T05:12:32.824Z,5.20
2018-09-09T05:13:32.806Z,7.90
2018-09-09T05:14:32.801Z,4.70
2018-09-09T05:15:32.817Z,4.70
2018-09-09T05:16:32.769Z,6.40
2018-09-09T05:17:32.763Z,5.60
2018-09-09T05:18:32.739Z,4.80
2018-09-09T05:19:32.773Z,6.30
2018-09-09T05:20:32.779Z,7.70
2018-09-09T05:21:32.757Z,6.60
2018-09-09T05:22:32.707Z,6.20
2018-09-09T05:23:32.706Z,5.20
2018-09-09T05:24:32.723Z,4.70
2018-09-09T05:25:32.695Z,4.50
2018-09-09T05:26:32.657Z,6.80
2018-09-09T05:27:32.654Z,4.80
2018-09-09T05:28:32.668Z,6.50
2018-09-09T05:29:32.640Z,5.90
2018-09-09T05:30:32.675Z,6.50
2018-09-09T05:31:32.606Z,6.20
2018-09-09T05:32:32.599Z,5.10
2018-09-09T05:33:32.579Z,6.40
2018-09-09T05:34:32.576Z,5.00
2018-09-09T05:35:32.601Z,6.50
2018-09-09T05:36:32.545Z,5.70
2018-09-09T05:37:32.545Z,4.70
2018-09-09T05:38:32.537Z,5.00
2018-09-09T05:39:32.525Z,5.40
2018-09-09T05:40:32.539Z,5.40
2018-09-09T05:41:32.516Z,4.60
2018-09-09T05:42:32.518Z,5.30
2018-09-09T05:43:32.513Z,4.90
2018-09-09T05:44:32.525Z,4.10
2018-09-09T05:45:32.448Z,4.20
2018-09-09T05:46:32.447Z,5.20
2018-09-09T05:47:32.476Z,5.00
2018-09-09T05:48:32.423Z,5.70
2018-09-09T05:49:32.436Z,6.50
2018-09-09T05:50:32.402Z,5.90
2018-09-09T05:51:32.402Z,5.30
2018-09-09T05:52:32.415Z,4.80
2018-09-09T05:53:32.378Z,6.10
2018-09-09T05:54:32.381Z,4.10
2018-09-09T05:55:32.335Z,4.00
2018-09-09T05:56:32.335Z,5.40
2018-09-09T05:57:32.389Z,6.40
2018-09-09T05:58:32.347Z,5.20
2018-09-09T05:59:32.359Z,4.80
2018-09-09T06:00:32.334Z,7.20
2018-09-09T06:01:32.294Z,7.30
2018-09-09T06:02:32.413Z,6.20
2018-09-09T06:03:32.284Z,4.90
2018-09-09T06:04:32.284Z,4.80
2018-09-09T06:05:32.254Z,5.70
2018-09-09T06:06:32.237Z,6.70
2018-09-09T06:07:32.251Z,5.70
2018-09-09T06:08:32.263Z,6.40
2018-09-09T06:09:32.241Z,3.90
2018-09-09T06:10:32.227Z,3.70
2018-09-09T06:11:32.156Z,4.70
2018-09-09T06:12:32.159Z,5.80
2018-09-09T06:13:32.166Z,6.20
2018-09-09T06:14:32.151Z,6.10
2018-09-09T06:15:32.108Z,3.80
2018-09-09T06:16:32.128Z,5.10
2018-09-09T06:17:32.097Z,6.00
2018-09-09T06:18:32.130Z,5.00
2018-09-09T06:19:32.073Z,6.10
2018-09-09T06:20:32.052Z,4.70
2018-09-09T06:21:32.045Z,6.40
2018-09-09T06:22:32.050Z,4.40
2018-09-09T06:23:32.059Z,4.90
2018-09-09T06:24:32.111Z,6.50
2018-09-09T06:25:32.048Z,6.40
2018-09-09T06:26:32.056Z,5.70
2018-09-09T06:27:32.072Z,6.90
2018-09-09T06:28:32.035Z,4.00
2018-09-09T06:29:32.076Z,6.00
2018-09-09T06:30:31.955Z,7.30
2018-09-09T06:31:31.969Z,8.10
2018-09-09T06:32:31.947Z,6.20
2018-09-09T06:33:31.918Z,5.90
2018-09-09T06:34:31.971Z,3.90
2018-09-09T06:35:31.895Z,7.60
2018-09-09T06:36:31.869Z,5.10
2018-09-09T06:37:31.853Z,7.00
2018-09-09T06:38:31.857Z,5.20
2018-09-09T06:39:31.897Z,8.10
2018-09-09T06:40:31.829Z,5.60
2018-09-09T06:41:31.809Z,6.20
2018-09-09T06:42:31.809Z,9.20
2018-09-09T06:43:31.797Z,4.80
2018-09-09T06:44:31.831Z,4.90
2018-09-09T06:45:31.775Z,5.50
2018-09-09T06:46:31.886Z,5.10
2018-09-09T06:47:31.753Z,5.60
2018-09-09T06:48:31.751Z,6.10
2018-09-09T06:49:31.763Z,5.60
2018-09-09T06:50:31.721Z,4.30
2018-09-09T06:51:31.743Z,4.30
2018-09-09T06:52:31.705Z,4.90
2018-09-09T06:53:31.696Z,4.60
2018-09-09T06:54:31.675Z,5.30
2018-09-09T06:55:31.769Z,6.00
2018-09-09T06:56:31.651Z,6.00
2018-09-09T06:57:31.648Z,7.30
2018-09-09T06:58:31.630Z,5.50
2018-09-09T06:59:31.621Z,3.40
2018-09-09T07:00:31.659Z,6.30
2018-09-09T07:01:31.596Z,6.50
2018-09-09T07:02:31.608Z,5.50
2018-09-09T07:03:31.582Z,4.50
2018-09-09T07:04:31.560Z,4.90
2018-09-09T07:05:31.586Z,4.90
2018-09-09T07:06:31.538Z,6.60
2018-09-09T07:07:31.527Z,6.20
2018-09-09T07:08:31.526Z,4.90
2018-09-09T07:09:31.507Z,5.00
2018-09-09T07:10:31.546Z,4.60
2018-09-09T07:11:31.544Z,5.10
2018-09-09T07:12:31.478Z,5.60
2018-09-09T07:13:31.458Z,5.70
2018-09-09T07:14:31.446Z,5.80
2018-09-09T07:15:31.470Z,5.00
2018-09-09T07:16:31.458Z,5.20
2018-09-09T07:17:31.419Z,6.80
2018-09-09T07:18:31.395Z,5.70
2018-09-09T07:19:31.399Z,9.40
2018-09-09T07:20:31.376Z,4.60
2018-09-09T07:21:31.398Z,4.60
2018-09-09T07:22:31.368Z,6.20
2018-09-09T07:23:31.347Z,5.50
2018-09-09T07:24:31.331Z,6.50
2018-09-09T07:25:31.322Z,4.30
2018-09-09T07:26:31.352Z,4.60
2018-09-09T07:27:31.341Z,6.10
2018-09-09T07:28:31.352Z,5.30
2018-09-09T07:29:31.277Z,6.90
2018-09-09T07:30:31.263Z,5.30
2018-09-09T07:31:31.257Z,6.90
2018-09-09T07:32:31.289Z,6.30
2018-09-09T07:33:31.234Z,5.50
2018-09-09T07:34:31.221Z,5.00
2018-09-09T07:35:31.215Z,4.40
2018-09-09T07:36:31.229Z,6.80
2018-09-09T07:37:31.231Z,4.10
2018-09-09T07:38:31.186Z,4.70
2018-09-09T07:39:31.165Z,6.20
2018-09-09T07:40:31.156Z,6.30
2018-09-09T07:41:31.149Z,5.80
2018-09-09T07:42:31.182Z,4.90
2018-09-09T07:43:31.127Z,6.20
2018-09-09T07:44:31.115Z,5.90
2018-09-09T07:45:31.094Z,7.50
2018-09-09T07:46:31.177Z,7.20
2018-09-09T07:47:31.127Z,5.80
2018-09-09T07:48:31.075Z,7.70
2018-09-09T07:49:31.064Z,5.60
2018-09-09T07:50:31.056Z,7.30
2018-09-09T07:51:31.038Z,4.80
2018-09-09T07:52:31.066Z,5.40
2018-09-09T07:53:31.062Z,5.50
2018-09-09T07:54:31.013Z,6.50
2018-09-09T07:55:30.996Z,6.10
2018-09-09T07:56:30.980Z,5.80
2018-09-09T07:57:30.972Z,5.20
2018-09-09T07:58:30.992Z,5.50
2018-09-09T07:59:30.968Z,5.60
2018-09-09T08:00:30.979Z,4.20
2018-09-09T08:01:30.932Z,6.10
2018-09-09T08:02:30.922Z,5.10
2018-09-09T08:03:30.942Z,4.30
2018-09-09T08:04:30.922Z,5.60
2018-09-09T08:05:30.894Z,5.20
2018-09-09T08:06:30.909Z,4.80
2018-09-09T08:07:30.863Z,6.00
2018-09-09T08:08:30.927Z,6.80
2018-09-09T08:09:30.844Z,4.10
2018-09-09T08:10:30.832Z,6.70
2018-09-09T08:11:30.818Z,3.10
2018-09-09T08:12:30.810Z,3.70
2018-09-09T08:13:30.840Z,5.70
2018-09-09T08:14:30.784Z,5.00
2018-09-09T08:15:30.782Z,4.90
2018-09-09T08:16:30.770Z,9.10
2018-09-09T08:17:30.744Z,5.10
2018-09-09T08:18:30.854Z,4.50
2018-09-09T08:19:30.723Z,5.00
2018-09-09T08:20:30.707Z,4.20
2018-09-09T08:21:30.705Z,4.70
2018-09-09T08:22:30.690Z,4.40
2018-09-09T08:23:30.726Z,4.80
2018-09-09T08:24:30.713Z,5.80
2018-09-09T08:25:30.651Z,4.20
2018-09-09T08:26:30.647Z,4.40
2018-09-09T08:27:30.631Z,4.80
2018-09-09T08:28:30.623Z,6.20
2018-09-09T08:29:30.653Z,4.80
2018-09-09T08:30:30.597Z,5.60
2018-09-09T08:31:30.593Z,4.50
2018-09-09T08:32:30.573Z,5.20
2018-09-09T08:33:30.569Z,4.40
2018-09-09T08:34:30.592Z,4.80
2018-09-09T08:35:30.588Z,4.10
2018-09-09T08:36:30.542Z,5.60
2018-09-09T08:37:30.531Z,5.70
2018-09-09T08:38:30.522Z,5.80
2018-09-09T08:39:30.559Z,5.70
2018-09-09T08:40:30.498Z,5.10
2018-09-09T08:41:30.509Z,4.90
2018-09-09T08:42:30.474Z,6.00
2018-09-09T08:43:30.454Z,4.20
2018-09-09T08:44:31.065Z,5.20
2018-09-09T08:45:30.459Z,6.50
2018-09-09T08:46:30.483Z,4.90
2018-09-09T08:47:30.411Z,6.20
2018-09-09T08:48:30.436Z,5.70
2018-09-09T08:49:30.422Z,6.80
2018-09-09T08:50:30.377Z,6.30
2018-09-09T08:51:30.403Z,4.60
2018-09-09T08:52:30.358Z,6.70
2018-09-09T08:53:30.342Z,7.20
2018-09-09T08:54:30.355Z,7.70
2018-09-09T08:55:30.330Z,7.20
2018-09-09T08:56:30.359Z,6.10
2018-09-09T08:57:30.341Z,5.50
2018-09-09T08:58:30.291Z,4.30
2018-09-09T08:59:30.273Z,8.00
2018-09-09T09:00:30.266Z,7.70
2018-09-09T09:01:30.299Z,6.50
2018-09-09T09:02:30.244Z,7.40
2018-09-09T09:03:30.234Z,5.90
2018-09-09T09:04:30.215Z,5.40
2018-09-09T09:05:30.213Z,6.10
2018-09-09T09:06:30.226Z,7.20
2018-09-09T09:07:30.262Z,10.00
2018-09-09T09:08:30.172Z,6.30
2018-09-09T09:09:30.155Z,6.80
2018-09-09T09:10:30.154Z,7.00
2018-09-09T09:11:30.140Z,7.90
2018-09-09T09:12:30.169Z,6.10
2018-09-09T09:13:30.117Z,6.40
2018-09-09T09:14:30.104Z,5.90
2018-09-09T09:15:30.100Z,7.00
2018-09-09T09:16:30.088Z,5.20
2018-09-09T09:17:30.105Z,7.30
2018-09-09T09:18:30.121Z,3.60
2018-09-09T09:19:30.083Z,5.70
2018-09-09T09:20:30.062Z,6.10
2018-09-09T09:21:30.031Z,4.20
2018-09-09T09:22:30.062Z,5.60
2018-09-09T09:23:30.072Z,5.20
2018-09-09T09:24:30.006Z,4.70
2018-09-09T09:25:29.995Z,5.20
2018-09-09T09:26:30.094Z,5.30
2018-09-09T09:27:30.002Z,5.50
2018-09-09T09:28:29.964Z,6.00
2018-09-09T09:29:29.950Z,5.80
2018-09-09T09:30:29.942Z,4.40
2018-09-09T09:31:29.929Z,5.50
2018-09-09T09:32:29.973Z,6.60
2018-09-09T09:33:29.906Z,5.90
2018-09-09T09:34:29.894Z,7.00
2018-09-09T09:35:29.882Z,5.20
2018-09-09T09:36:29.864Z,6.00
2018-09-09T09:37:29.901Z,5.50
2018-09-09T09:38:29.852Z,6.60
2018-09-09T09:39:30.127Z,4.70
2018-09-09T09:40:29.830Z,4.40
2018-09-09T09:41:29.825Z,4.30
2018-09-09T09:42:29.874Z,3.60
2018-09-09T09:43:29.797Z,3.30
2018-09-09T09:44:29.785Z,2.60
2018-09-09T09:45:29.775Z,2.90
2018-09-09T09:46:29.793Z,4.60
2018-09-09T09:47:29.804Z,3.40
2018-09-09T09:48:29.734Z,3.10
2018-09-09T09:49:29.733Z,3.90
2018-09-09T09:50:29.714Z,6.10
2018-09-09T09:51:29.726Z,3.40
2018-09-09T09:52:29.753Z,3.30
2018-09-09T09:53:29.711Z,3.00
2018-09-09T09:54:29.660Z,3.10
2018-09-09T09:55:29.687Z,2.60
2018-09-09T09:56:29.697Z,3.50
2018-09-09T09:57:29.632Z,3.30
2018-09-09T09:58:29.627Z,3.30
2018-09-09T09:59:29.655Z,2.20
2018-09-09T10:00:29.600Z,3.70
2018-09-09T10:01:29.636Z,2.90
2018-09-09T10:02:29.589Z,3.60
2018-09-09T10:03:29.628Z,2.50
2018-09-09T10:04:29.569Z,3.20
2018-09-09T10:05:29.555Z,4.40
2018-09-09T10:06:29.587Z,3.00
2018-09-09T10:07:29.521Z,3.30
2018-09-09T10:08:29.549Z,2.60
2018-09-09T10:09:29.503Z,3.10
2018-09-09T10:10:29.501Z,2.40
2018-09-09T10:11:29.491Z,2.80
2018-09-09T10:12:29.473Z,3.00
2018-09-09T10:13:29.493Z,2.70
2018-09-09T10:14:29.479Z,3.20
2018-09-09T10:15:29.435Z,3.20
2018-09-09T10:16:29.433Z,3.60
2018-09-09T10:17:29.415Z,3.50
2018-09-09T10:18:29.456Z,3.70
2018-09-09T10:19:29.396Z,1.90
2018-09-09T10:20:29.380Z,3.40
2018-09-09T10:21:29.377Z,4.10
2018-09-09T10:22:29.357Z,1.90
2018-09-09T10:23:29.389Z,2.50
2018-09-09T10:24:29.337Z,2.50
2018-09-09T10:25:29.332Z,1.90
2018-09-09T10:26:29.323Z,2.50
2018-09-09T10:27:29.316Z,2.40
2018-09-09T10:28:29.341Z,3.40
2018-09-09T10:29:29.297Z,3.30
2018-09-09T10:30:29.285Z,3.50
2018-09-09T10:31:29.300Z,2.40
2018-09-09T10:32:29.268Z,4.50
2018-09-09T10:33:29.291Z,3.10
2018-09-09T10:34:29.240Z,2.80
2018-09-09T10:35:29.237Z,4.40
2018-09-09T10:36:29.216Z,1.80
2018-09-09T10:37:29.232Z,3.10
2018-09-09T10:38:29.244Z,2.80
2018-09-09T10:39:29.189Z,4.40
2018-09-09T10:40:29.232Z,3.00
2018-09-09T10:41:29.179Z,2.40
2018-09-09T10:42:29.163Z,3.10
2018-09-09T10:43:29.157Z,3.50
2018-09-09T10:44:29.133Z,3.20
2018-09-09T10:45:29.161Z,3.30
2018-09-09T10:46:29.201Z,2.90
2018-09-09T10:47:29.108Z,2.90
2018-09-09T10:48:29.090Z,2.80
2018-09-09T10:49:29.130Z,3.90
2018-09-09T10:50:29.073Z,2.30
2018-09-09T10:51:29.060Z,2.60
2018-09-09T10:52:29.055Z,4.70
2018-09-09T10:53:29.079Z,2.20
2018-09-09T10:54:29.075Z,2.70
2018-09-09T10:55:29.026Z,3.30
2018-09-09T10:56:29.007Z,1.80
2018-09-09T10:57:28.998Z,2.80
2018-09-09T10:58:29.015Z,2.70
2018-09-09T10:59:28.979Z,2.70
2018-09-09T11:00:29.017Z,1.90
2018-09-09T11:01:28.945Z,3.70
2018-09-09T11:02:28.939Z,2.60
2018-09-09T11:03:28.935Z,3.00
2018-09-09T11:04:28.915Z,2.40
2018-09-09T11:05:28.961Z,1.90
2018-09-09T11:06:28.893Z,2.70
2018-09-09T11:07:28.911Z,2.40
2018-09-09T11:08:28.893Z,3.00
2018-09-09T11:09:28.864Z,2.50
2018-09-09T11:10:28.891Z,2.60
2018-09-09T11:11:28.843Z,1.90
2018-09-09T11:12:28.895Z,1.80
2018-09-09T11:13:28.877Z,1.90
2018-09-09T11:14:28.817Z,2.00
2018-09-09T11:15:28.807Z,2.50
2018-09-09T11:16:28.822Z,2.40
2018-09-09T11:17:28.789Z,2.40
2018-09-09T11:18:28.777Z,2.70
2018-09-09T11:19:28.755Z,2.50
2018-09-09T11:20:28.753Z,2.60
2018-09-09T11:21:28.767Z,1.40
2018-09-09T11:22:28.744Z,2.90
2018-09-09T11:23:28.722Z,1.30
2018-09-09T11:24:28.827Z,3.00
2018-09-09T11:25:28.699Z,2.50
2018-09-09T11:26:28.695Z,1.30
2018-09-09T11:27:28.721Z,2.50
2018-09-09T11:28:28.697Z,2.30
2018-09-09T11:29:28.705Z,2.50
2018-09-09T11:30:28.652Z,2.30
2018-09-09T11:31:28.654Z,2.70
2018-09-09T11:32:28.649Z,1.70
2018-09-09T11:33:28.642Z,2.20
2018-09-09T11:34:28.661Z,1.90
2018-09-09T11:35:28.618Z,1.90
2018-09-09T11:36:28.589Z,2.30
2018-09-09T11:37:28.590Z,2.10
2018-09-09T11:38:28.575Z,2.50
2018-09-09T11:39:28.602Z,2.60
2018-09-09T11:40:28.556Z,4.00
2018-09-09T11:41:28.551Z,2.70
2018-09-09T11:42:28.539Z,3.20
2018-09-09T11:43:28.530Z,2.40
2018-09-09T11:44:28.547Z,3.00
2018-09-09T11:45:28.508Z,3.80
2018-09-09T11:46:28.510Z,3.60
2018-09-09T11:47:28.486Z,2.50
2018-09-09T11:48:28.470Z,3.70
2018-09-09T11:49:28.511Z,2.40
2018-09-09T11:50:28.449Z,2.90
2018-09-09T11:51:28.439Z,3.10
2018-09-09T11:52:28.457Z,3.30
2018-09-09T11:53:28.421Z,2.80
2018-09-09T11:54:28.450Z,2.60
2018-09-09T11:55:28.402Z,2.70
2018-09-09T11:56:28.426Z,2.00
2018-09-09T11:57:28.377Z,3.00
2018-09-09T11:58:28.368Z,1.80
2018-09-09T11:59:28.364Z,3.70
2018-09-09T12:00:28.386Z,2.10
2018-09-09T12:01:28.368Z,1.90
2018-09-09T12:02:28.345Z,3.80
2018-09-09T12:03:28.309Z,2.80
2018-09-09T12:04:28.315Z,2.40
2018-09-09T12:05:28.281Z,2.30
2018-09-09T12:06:28.320Z,2.90
2018-09-09T12:07:28.301Z,1.90
2018-09-09T12:08:28.253Z,2.30
2018-09-09T12:09:28.279Z,3.00
2018-09-09T12:10:28.231Z,2.70
2018-09-09T12:11:28.224Z,4.10
2018-09-09T12:12:28.215Z,3.70
2018-09-09T12:13:28.203Z,2.80
2018-09-09T12:14:28.231Z,3.00
2018-09-09T12:15:28.175Z,2.40
2018-09-09T12:16:28.165Z,2.90
2018-09-09T12:17:28.190Z,2.00
2018-09-09T12:18:28.155Z,5.00
2018-09-09T12:19:28.164Z,2.70
2018-09-09T12:20:28.162Z,2.80
2018-09-09T12:21:28.120Z,3.70
2018-09-09T12:22:28.124Z,3.50
2018-09-09T12:23:28.115Z,3.90
2018-09-09T12:24:28.095Z,3.30
2018-09-09T12:25:28.109Z,4.00
2018-09-09T12:26:28.093Z,3.20
2018-09-09T12:27:28.093Z,2.70
2018-09-09T12:28:28.030Z,3.50
2018-09-09T12:29:28.047Z,3.20
2018-09-09T12:30:28.052Z,1.50
2018-09-09T12:31:28.014Z,2.30
2018-09-09T12:32:28.047Z,2.90
2018-09-09T12:33:27.989Z,2.00
2018-09-09T12:34:27.981Z,1.90
2018-09-09T12:35:27.969Z,2.40
2018-09-09T12:36:27.964Z,2.90
2018-09-09T12:37:27.985Z,1.80
2018-09-09T12:38:27.947Z,4.10
2018-09-09T12:39:27.939Z,3.20
2018-09-09T12:40:27.923Z,2.00
2018-09-09T12:41:27.955Z,3.90
2018-09-09T12:42:27.903Z,3.70
2018-09-09T12:43:27.887Z,3.00
2018-09-09T12:44:27.883Z,3.20
2018-09-09T12:45:27.868Z,3.60
2018-09-09T12:46:28.001Z,2.70
2018-09-09T12:47:27.854Z,3.30
2018-09-09T12:48:27.840Z,4.10
2018-09-09T12:49:27.828Z,3.30
2018-09-09T12:50:27.807Z,2.70
2018-09-09T12:51:27.850Z,1.70
2018-09-09T12:52:27.785Z,4.20
2018-09-09T12:53:27.775Z,2.40
2018-09-09T12:54:27.759Z,2.20
2018-09-09T12:55:27.757Z,2.10
2018-09-09T12:56:27.793Z,4.00
2018-09-09T12:57:27.769Z,6.20
2018-09-09T12:58:27.729Z,2.40
2018-09-09T12:59:27.728Z,1.80
2018-09-09T13:00:27.725Z,4.30
2018-09-09T13:01:27.691Z,1.90
2018-09-09T13:02:27.724Z,2.10
2018-09-09T13:03:27.677Z,2.00
2018-09-09T13:04:27.660Z,1.80
2018-09-09T13:05:27.699Z,3.20
2018-09-09T13:06:27.683Z,4.50
2018-09-09T13:07:27.770Z,2.30
2018-09-09T13:08:27.634Z,2.60
2018-09-09T13:09:27.618Z,3.70
2018-09-09T13:10:27.606Z,2.00
2018-09-09T13:11:27.651Z,2.60
2018-09-09T13:12:27.577Z,3.20
2018-09-09T13:13:27.565Z,3.60
2018-09-09T13:14:27.569Z,3.20
2018-09-09T13:15:27.549Z,2.50
2018-09-09T13:16:27.597Z,2.70
2018-09-09T13:17:27.523Z,4.30
2018-09-09T13:18:27.514Z,2.50